Time;durP1;ratioP1;P1;durP2;ratioP2;P2;SDS_P1;SDS_P2;PMS_P1;PMS_P2;Temp;Humidity;BMP_temperature;BMP_pressure;BME280_temperature;BME280_humidity;BME280_pressure;Samples;Min_cycle;Max_cycle;Signal;HPM_P1;HPM_P2
2023/12/30 00:02:15;;;;;;;1.40;1.03;;;;;;;9.04;100.00;96142.44;5035369;28;20235;-68
2023/12/30 00:04:41;;;;;;;3.23;1.23;;;;;;;8.89;100.00;96148.56;5036248;28;21023;-67
2023/12/30 00:07:08;;;;;;;2.80;1.33;;;;;;;8.84;100.00;96150.88;5036070;28;20691;-67
2023/12/30 00:09:35;;;;;;;1.57;1.10;;;;;;;9.08;100.00;96147.16;5035831;28;20201;-67
2023/12/30 00:12:03;;;;;;;2.00;1.10;;;;;;;8.95;100.00;96142.63;5035662;28;20200;-67
2023/12/30 00:14:29;;;;;;;1.37;0.93;;;;;;;8.99;100.00;96146.56;5036310;28;20299;-67
2023/12/30 00:16:56;;;;;;;3.47;1.13;;;;;;;9.08;100.00;96155.06;5035821;28;20209;-67
2023/12/30 00:19:22;;;;;;;6.67;1.27;;;;;;;8.98;100.00;96171.22;5036245;28;20216;-67
2023/12/30 00:21:48;;;;;;;2.80;1.20;;;;;;;9.07;100.00;96160.47;5035908;28;20225;-67
2023/12/30 00:24:15;;;;;;;1.73;1.20;;;;;;;9.04;100.00;96152.94;5035916;28;20243;-68
2023/12/30 00:26:44;;;;;;;2.53;1.20;;;;;;;9.02;100.00;96154.91;5035485;28;20205;-67
2023/12/30 00:29:11;;;;;;;2.13;1.00;;;;;;;8.96;100.00;96154.78;5035794;28;21098;-68
2023/12/30 00:31:38;;;;;;;1.97;1.10;;;;;;;8.92;100.00;96151.66;5035657;28;21112;-67
2023/12/30 00:34:04;;;;;;;3.23;1.93;;;;;;;8.85;100.00;96161.22;5035069;28;20221;-67
2023/12/30 00:36:31;;;;;;;2.40;1.30;;;;;;;8.95;100.00;96156.59;5035644;28;20201;-67
2023/12/30 00:38:57;;;;;;;2.30;1.50;;;;;;;8.97;100.00;96159.84;5035847;28;20209;-68
2023/12/30 00:41:24;;;;;;;3.20;1.50;;;;;;;8.96;100.00;96171.38;5036283;28;20228;-68
2023/12/30 00:43:52;;;;;;;4.40;2.20;;;;;;;8.96;100.00;96166.13;5035124;28;21211;-68
2023/12/30 00:46:20;;;;;;;2.23;1.50;;;;;;;8.84;100.00;96177.97;5035170;28;20201;-67
2023/12/30 00:48:46;;;;;;;1.43;1.07;;;;;;;8.87;100.00;96182.06;5035731;28;20204;-67
2023/12/30 00:51:13;;;;;;;2.97;1.50;;;;;;;8.72;100.00;96176.69;5036347;28;20216;-67
2023/12/30 00:53:39;;;;;;;2.73;1.37;;;;;;;8.80;100.00;96183.72;5035176;28;21371;-68
2023/12/30 00:56:06;;;;;;;2.67;1.37;;;;;;;8.96;100.00;96189.78;5035800;28;20208;-67
2023/12/30 00:58:33;;;;;;;2.47;1.50;;;;;;;8.87;100.00;96187.31;5036143;28;20201;-68
2023/12/30 01:01:01;;;;;;;3.53;1.33;;;;;;;8.89;100.00;96175.66;5039435;28;20230;-68
2023/12/30 01:03:27;;;;;;;2.00;1.30;;;;;;;8.83;100.00;96186.81;5039187;28;20703;-68
2023/12/30 01:05:54;;;;;;;2.90;1.33;;;;;;;8.73;100.00;96196.72;5039107;28;20208;-67
2023/12/30 01:08:20;;;;;;;2.40;1.27;;;;;;;8.84;100.00;96188.47;5039769;28;20447;-68
2023/12/30 01:10:47;;;;;;;3.20;1.50;;;;;;;8.92;100.00;96196.31;5039583;28;20211;-67
2023/12/30 01:13:13;;;;;;;2.37;1.60;;;;;;;8.92;100.00;96200.78;5038730;28;20223;-67
2023/12/30 01:15:40;;;;;;;2.80;1.30;;;;;;;8.88;100.00;96199.47;5039101;28;20581;-68
2023/12/30 01:18:08;;;;;;;2.30;1.30;;;;;;;9.09;100.00;96192.69;5039574;28;20212;-68
2023/12/30 01:20:35;;;;;;;2.37;1.40;;;;;;;8.79;100.00;96198.66;5039170;28;20332;-68
2023/12/30 01:23:01;;;;;;;1.80;1.40;;;;;;;8.73;100.00;96203.75;5039159;28;20235;-68
2023/12/30 01:25:28;;;;;;;2.20;1.23;;;;;;;8.70;100.00;96207.53;5039683;28;20205;-68
2023/12/30 01:27:54;;;;;;;4.43;1.50;;;;;;;8.61;100.00;96198.03;5038210;28;20209;-68
2023/12/30 01:30:21;;;;;;;2.67;1.43;;;;;;;8.62;100.00;96201.50;5039488;28;20197;-68
2023/12/30 01:32:47;;;;;;;2.17;1.50;;;;;;;8.47;100.00;96203.13;5037929;28;20663;-68
2023/12/30 01:35:15;;;;;;;2.67;1.47;;;;;;;8.65;100.00;96204.59;5038395;28;20200;-68
2023/12/30 01:37:42;;;;;;;3.70;1.63;;;;;;;8.42;100.00;96207.25;5038595;28;20207;-68
2023/12/30 01:40:09;;;;;;;3.20;1.50;;;;;;;8.55;100.00;96206.59;5039075;28;20229;-68
2023/12/30 01:42:36;;;;;;;3.50;1.70;;;;;;;8.41;100.00;96205.59;5038070;28;20236;-68
2023/12/30 01:45:02;;;;;;;2.80;1.40;;;;;;;8.29;100.00;96206.94;5038953;28;20266;-68
2023/12/30 01:47:29;;;;;;;2.53;1.60;;;;;;;8.30;100.00;96209.38;5038786;28;20285;-68
2023/12/30 01:49:55;;;;;;;2.93;1.60;;;;;;;8.18;100.00;96207.22;5037574;28;20194;-68
2023/12/30 01:52:24;;;;;;;3.07;1.97;;;;;;;8.46;100.00;96203.31;5038035;28;20582;-68
2023/12/30 01:54:50;;;;;;;4.77;1.60;;;;;;;8.29;100.00;96209.56;5038764;28;20236;-67
2023/12/30 01:57:17;;;;;;;4.50;1.90;;;;;;;8.33;100.00;96209.03;5038113;28;20197;-67
2023/12/30 01:59:45;;;;;;;2.80;1.70;;;;;;;8.45;100.00;96206.91;5037993;28;20205;-67
2023/12/30 02:02:12;;;;;;;5.30;1.77;;;;;;;8.17;100.00;96203.81;5038668;28;20232;-67
2023/12/30 02:04:39;;;;;;;3.07;1.67;;;;;;;8.25;100.00;96211.66;5037578;28;20232;-68
2023/12/30 02:07:05;;;;;;;3.03;1.53;;;;;;;8.24;100.00;96215.28;5037779;28;20582;-68
2023/12/30 02:09:33;;;;;;;3.47;1.87;;;;;;;8.31;100.00;96223.31;5039188;28;20913;-68
2023/12/30 02:12:00;;;;;;;4.80;1.80;;;;;;;8.21;100.00;96230.53;5037133;28;20208;-67
2023/12/30 02:14:28;;;;;;;5.03;1.47;;;;;;;8.36;100.00;96232.34;5037726;28;20228;-67
2023/12/30 02:16:54;;;;;;;4.33;2.10;;;;;;;8.27;100.00;96227.25;5037366;28;20296;-67
2023/12/30 02:19:21;;;;;;;2.90;1.40;;;;;;;8.25;100.00;96223.97;5038866;28;20201;-67
2023/12/30 02:21:48;;;;;;;4.03;1.77;;;;;;;8.24;100.00;96228.41;5037075;28;20907;-67
2023/12/30 02:24:16;;;;;;;1.77;1.00;;;;;;;8.43;100.00;96230.72;5038095;28;20221;-67
2023/12/30 02:26:43;;;;;;;2.07;1.17;;;;;;;8.27;100.00;96229.88;5037491;28;20201;-67
2023/12/30 02:29:10;;;;;;;2.10;1.50;;;;;;;8.28;100.00;96236.78;5038117;28;20197;-68
2023/12/30 02:31:39;;;;;;;3.93;1.70;;;;;;;8.09;100.00;96229.97;5037903;28;20593;-68
2023/12/30 02:34:06;;;;;;;1.70;1.30;;;;;;;8.13;100.00;96230.50;5037445;28;20225;-68
2023/12/30 02:36:32;;;;;;;2.13;1.30;;;;;;;8.10;100.00;96230.81;5037873;28;20205;-67
2023/12/30 02:38:59;;;;;;;2.47;1.40;;;;;;;8.04;100.00;96228.84;5037515;28;20208;-68
2023/12/30 02:41:27;;;;;;;2.77;1.20;;;;;;;8.04;100.00;96229.69;5038199;28;20201;-68
2023/12/30 02:43:57;;;;;;;2.00;1.00;;;;;;;8.24;100.00;96236.28;5036388;28;20283;-67
2023/12/30 02:46:24;;;;;;;3.17;1.60;;;;;;;8.05;100.00;96238.34;5037974;28;20200;-68
2023/12/30 02:48:50;;;;;;;4.43;1.30;;;;;;;8.02;100.00;96230.81;5036582;28;20228;-68
2023/12/30 02:51:17;;;;;;;2.30;1.53;;;;;;;8.17;100.00;96239.72;5037552;28;20572;-68
2023/12/30 02:53:44;;;;;;;3.50;1.40;;;;;;;7.97;100.00;96238.34;5036905;28;20217;-67
2023/12/30 02:56:18;;;;;;;5.07;1.40;;;;;;;8.17;100.00;96239.72;5037242;28;20201;-68
2023/12/30 02:58:48;;;;;;;3.23;1.53;;;;;;;8.25;100.00;96239.72;5036983;28;20201;-67
2023/12/30 03:01:14;;;;;;;3.07;1.70;;;;;;;7.99;100.00;96254.72;5037504;28;20205;-67
2023/12/30 03:03:41;;;;;;;2.13;1.30;;;;;;;7.99;100.00;96252.94;5036855;28;20229;-67
2023/12/30 03:06:08;;;;;;;1.30;0.97;;;;;;;8.12;100.00;96242.81;5036562;28;21226;-68
2023/12/30 03:08:34;;;;;;;1.70;1.00;;;;;;;8.02;100.00;96238.69;5037574;28;20203;-68
2023/12/30 03:11:03;;;;;;;1.07;0.97;;;;;;;8.13;100.00;96235.75;5036863;28;20831;-67
2023/12/30 03:13:29;;;;;;;2.00;1.10;;;;;;;7.94;100.00;96234.25;5035910;28;20225;-67
2023/12/30 03:15:57;;;;;;;1.77;0.97;;;;;;;8.04;100.00;96241.94;5036623;28;20212;-67
2023/12/30 03:18:24;;;;;;;1.70;0.90;;;;;;;8.18;100.00;96242.16;5037000;28;20243;-68
2023/12/30 03:20:50;;;;;;;0.80;0.80;;;;;;;8.16;100.00;96253.81;5036972;28;20304;-67
2023/12/30 03:23:17;;;;;;;1.47;0.90;;;;;;;7.96;100.00;96255.88;5035118;28;20888;-67
2023/12/30 03:25:43;;;;;;;3.10;1.20;;;;;;;8.26;100.00;96264.97;5037138;28;20209;-67
2023/12/30 03:28:10;;;;;;;0.80;0.80;;;;;;;8.19;100.00;96264.81;5036932;28;20204;-67
2023/12/30 03:30:36;;;;;;;1.07;0.67;;;;;;;8.41;100.00;96266.81;5036698;28;20690;-67
2023/12/30 03:33:04;;;;;;;1.27;1.13;;;;;;;8.60;100.00;96275.22;5035839;28;20217;-67
2023/12/30 03:35:32;;;;;;;0.97;0.87;;;;;;;8.38;100.00;96268.94;5036474;28;20722;-67
2023/12/30 03:37:58;;;;;;;1.10;0.73;;;;;;;8.49;100.00;96274.72;5036226;28;20294;-67
2023/12/30 03:40:25;;;;;;;1.30;0.80;;;;;;;8.40;100.00;96273.06;5037551;28;20200;-68
2023/12/30 03:42:51;;;;;;;1.27;0.70;;;;;;;8.51;100.00;96278.81;5035703;28;20224;-67
2023/12/30 03:45:18;;;;;;;1.27;0.80;;;;;;;8.57;100.00;96272.06;5036406;28;20197;-67
2023/12/30 03:47:44;;;;;;;1.13;0.63;;;;;;;8.60;100.00;96264.69;5036053;28;20206;-67
2023/12/30 03:50:12;;;;;;;1.00;0.77;;;;;;;8.67;100.00;96263.03;5037060;28;20287;-67
2023/12/30 03:52:39;;;;;;;3.73;0.90;;;;;;;8.47;100.00;96267.97;5037099;28;20205;-67
2023/12/30 03:55:06;;;;;;;1.50;0.70;;;;;;;8.60;100.00;96267.31;5037377;28;20794;-67
2023/12/30 03:57:32;;;;;;;2.57;0.90;;;;;;;8.58;100.00;96266.66;5036754;28;20264;-66
2023/12/30 03:59:59;;;;;;;4.60;0.83;;;;;;;8.60;100.00;96274.38;5035785;28;20205;-67
2023/12/30 04:02:25;;;;;;;4.53;0.80;;;;;;;8.55;100.00;96259.13;5035916;28;20205;-67
2023/12/30 04:04:52;;;;;;;0.77;0.50;;;;;;;8.43;100.00;96261.41;5036406;28;20228;-67
2023/12/30 04:07:19;;;;;;;1.00;0.90;;;;;;;8.70;100.00;96259.25;5037067;28;20205;-67
2023/12/30 04:09:46;;;;;;;1.37;0.87;;;;;;;8.56;100.00;96268.59;5036698;28;20204;-67
2023/12/30 04:12:12;;;;;;;1.07;0.67;;;;;;;8.65;100.00;96277.31;5036129;28;21044;-67
2023/12/30 04:14:39;;;;;;;0.70;0.70;;;;;;;8.62;100.00;96270.59;5036320;28;20221;-67
2023/12/30 04:17:05;;;;;;;1.93;0.73;;;;;;;8.63;100.00;96274.88;5035574;28;20205;-67
2023/12/30 04:19:32;;;;;;;0.60;0.60;;;;;;;8.62;100.00;96265.34;5037575;28;20419;-67
2023/12/30 04:21:58;;;;;;;0.80;0.60;;;;;;;8.54;100.00;96270.59;5035958;28;20205;-67
2023/12/30 04:24:26;;;;;;;1.03;0.77;;;;;;;8.69;100.00;96268.97;5035743;28;20228;-67
2023/12/30 04:26:53;;;;;;;1.10;0.80;;;;;;;8.59;100.00;96277.97;5035614;28;20215;-67
2023/12/30 04:29:19;;;;;;;0.50;0.50;;;;;;;8.67;100.00;96276.19;5036601;28;20232;-67
2023/12/30 04:31:46;;;;;;;0.70;0.70;;;;;;;8.53;100.00;96281.28;5035158;28;20216;-67
2023/12/30 04:34:12;;;;;;;5.60;1.27;;;;;;;8.35;100.00;96280.59;5037996;28;20358;-67
2023/12/30 04:36:39;;;;;;;1.00;0.70;;;;;;;8.35;100.00;96282.38;5040616;28;20209;-67
2023/12/30 04:39:05;;;;;;;0.60;0.60;;;;;;;8.23;100.00;96281.06;5039591;28;20209;-67
2023/12/30 04:41:33;;;;;;;1.10;1.00;;;;;;;8.61;100.00;96295.22;5040304;28;21119;-67
2023/12/30 04:44:00;;;;;;;0.50;0.50;;;;;;;8.38;100.00;96293.41;5039220;28;20228;-67
2023/12/30 04:46:26;;;;;;;0.90;0.60;;;;;;;8.28;100.00;96297.16;5040499;28;20198;-67
2023/12/30 04:48:54;;;;;;;0.73;0.60;;;;;;;8.53;100.00;96300.47;5039390;28;20216;-67
2023/12/30 04:51:20;;;;;;;3.40;0.60;;;;;;;8.37;100.00;96307.50;5040239;28;20848;-67
2023/12/30 04:53:47;;;;;;;1.10;0.80;;;;;;;8.32;100.00;96304.53;5039102;28;20232;-67
2023/12/30 04:56:15;;;;;;;0.87;0.73;;;;;;;8.59;100.00;96306.84;5040503;28;20686;-67
2023/12/30 04:58:43;;;;;;;3.80;0.83;;;;;;;8.48;100.00;96302.75;5040108;28;20898;-67
2023/12/30 05:01:11;;;;;;;1.57;0.70;;;;;;;8.51;100.00;96306.84;5039851;28;20586;-67
2023/12/30 05:03:38;;;;;;;1.27;0.77;;;;;;;8.45;100.00;96302.25;5038993;28;20838;-67
2023/12/30 05:06:04;;;;;;;1.27;0.73;;;;;;;8.29;100.00;96297.00;5039669;28;20828;-67
2023/12/30 05:08:32;;;;;;;0.83;0.77;;;;;;;8.27;100.00;96292.88;5040111;28;20208;-67
2023/12/30 05:10:58;;;;;;;0.83;0.70;;;;;;;8.28;100.00;96286.66;5039482;28;20220;-67
2023/12/30 05:13:26;;;;;;;0.77;0.77;;;;;;;8.48;100.00;96286.19;5039237;28;20223;-67
2023/12/30 05:15:54;;;;;;;1.00;0.80;;;;;;;8.49;100.00;96300.97;5039492;28;20201;-67
2023/12/30 05:18:21;;;;;;;1.70;0.60;;;;;;;8.30;100.00;96303.03;5040206;28;20573;-67
2023/12/30 05:20:48;;;;;;;0.80;0.80;;;;;;;8.31;100.00;96304.69;5039116;28;20201;-67
2023/12/30 05:23:14;;;;;;;1.80;0.70;;;;;;;8.33;100.00;96314.06;5038432;28;20225;-67
2023/12/30 05:25:41;;;;;;;1.90;0.70;;;;;;;8.21;100.00;96314.50;5039990;28;20216;-67
2023/12/30 05:28:07;;;;;;;2.97;0.97;;;;;;;8.12;100.00;96315.44;5038653;28;20205;-67
2023/12/30 05:30:34;;;;;;;0.70;0.70;;;;;;;8.26;100.00;96322.72;5039659;28;20204;-67
2023/12/30 05:33:02;;;;;;;0.80;0.60;;;;;;;8.27;100.00;96325.19;5038395;28;20232;-67
2023/12/30 05:35:28;;;;;;;1.07;0.50;;;;;;;8.20;100.00;96339.16;5040174;28;20198;-67
2023/12/30 05:37:55;;;;;;;1.03;0.70;;;;;;;8.17;100.00;96339.44;5038756;28;20205;-66
2023/12/30 05:40:22;;;;;;;0.60;0.60;;;;;;;8.33;100.00;96321.94;5039261;28;20197;-67
2023/12/30 05:42:48;;;;;;;1.00;0.73;;;;;;;7.91;100.00;96328.19;5037295;28;20205;-67
2023/12/30 05:45:15;;;;;;;1.10;0.80;;;;;;;8.20;100.00;96334.69;5037568;28;20198;-67
2023/12/30 05:47:42;;;;;;;1.20;0.90;;;;;;;8.02;100.00;96330.53;5038660;28;20205;-67
2023/12/30 05:50:12;;;;;;;2.67;0.87;;;;;;;8.33;100.00;96323.75;5038553;28;20217;-67
2023/12/30 05:52:38;;;;;;;1.30;0.83;;;;;;;8.24;100.00;96328.16;5037687;28;20765;-67
2023/12/30 05:55:06;;;;;;;1.70;1.00;;;;;;;8.22;100.00;96332.75;5038300;28;20201;-67
2023/12/30 05:57:33;;;;;;;6.17;0.87;;;;;;;8.04;100.00;96326.75;5038768;28;20198;-67
2023/12/30 05:59:59;;;;;;;3.03;1.03;;;;;;;8.02;100.00;96333.16;5037866;28;20224;-67
2023/12/30 06:02:25;;;;;;;0.60;0.60;;;;;;;8.15;100.00;96333.56;5038138;28;20208;-67
2023/12/30 06:04:52;;;;;;;0.97;0.70;;;;;;;8.24;100.00;96335.22;5038081;28;20236;-66
2023/12/30 06:07:20;;;;;;;4.43;1.00;;;;;;;8.47;100.00;96337.06;5038232;28;20208;-67
2023/12/30 06:09:46;;;;;;;1.23;1.10;;;;;;;8.30;100.00;96332.75;5038586;28;20204;-67
2023/12/30 06:12:13;;;;;;;1.70;0.90;;;;;;;8.26;100.00;96334.06;5037449;28;20212;-67
2023/12/30 06:14:40;;;;;;;1.57;0.97;;;;;;;8.35;100.00;96334.91;5038356;28;20225;-67
2023/12/30 06:17:07;;;;;;;3.03;0.60;;;;;;;8.36;100.00;96337.34;5038158;28;20213;-67
2023/12/30 06:19:33;;;;;;;2.63;1.00;;;;;;;8.36;100.00;96337.34;5038412;28;20266;-67
2023/12/30 06:22:00;;;;;;;1.50;0.90;;;;;;;8.26;100.00;96328.81;5037123;28;20213;-67
2023/12/30 06:24:27;;;;;;;2.43;1.20;;;;;;;8.42;100.00;96325.41;5038469;28;20264;-67
2023/12/30 06:26:54;;;;;;;3.47;0.93;;;;;;;8.36;100.00;96320.78;5037742;28;20209;-67
2023/12/30 06:29:20;;;;;;;0.90;0.60;;;;;;;8.29;100.00;96332.94;5038934;28;20837;-67
2023/12/30 06:31:47;;;;;;;1.03;0.90;;;;;;;8.24;100.00;96335.22;5037934;28;20209;-67
2023/12/30 06:34:13;;;;;;;0.80;0.80;;;;;;;8.43;100.00;96333.13;5037545;28;20707;-67
2023/12/30 06:36:41;;;;;;;1.30;0.73;;;;;;;8.56;100.00;96336.09;5038964;28;20626;-67
2023/12/30 06:39:08;;;;;;;1.20;0.80;;;;;;;8.43;100.00;96332.31;5039057;28;20671;-67
2023/12/30 06:41:36;;;;;;;0.80;0.70;;;;;;;8.60;100.00;96330.38;5038870;28;20210;-67
2023/12/30 06:44:03;;;;;;;1.50;0.73;;;;;;;8.45;100.00;96330.31;5037352;28;21265;-67
2023/12/30 06:46:29;;;;;;;2.17;0.83;;;;;;;8.55;100.00;96337.06;5038157;28;20229;-67
2023/12/30 06:48:56;;;;;;;1.27;0.80;;;;;;;8.53;100.00;96331.16;5036467;28;20575;-67
2023/12/30 06:51:22;;;;;;;4.00;1.23;;;;;;;8.38;100.00;96331.97;5035623;28;20216;-67
2023/12/30 06:53:49;;;;;;;3.97;2.03;;;;;;;8.38;100.00;96337.22;5037321;28;20239;-67
2023/12/30 06:56:15;;;;;;;2.10;0.97;;;;;;;8.43;100.00;96342.81;5036312;28;20205;-67
2023/12/30 06:58:45;;;;;;;3.60;1.53;;;;;;;8.65;100.00;96330.66;5037744;28;20209;-67
2023/12/30 07:01:11;;;;;;;7.97;3.63;;;;;;;8.43;100.00;96338.38;5037308;28;20288;-67
2023/12/30 07:03:38;;;;;;;11.67;4.40;;;;;;;8.36;100.00;96333.91;5036379;28;20238;-67
2023/12/30 07:06:05;;;;;;;12.63;4.80;;;;;;;8.45;100.00;96343.44;5036360;28;20201;-67
2023/12/30 07:08:32;;;;;;;2.53;1.77;;;;;;;8.43;100.00;96345.44;5037203;28;20198;-67
2023/12/30 07:10:59;;;;;;;2.53;1.37;;;;;;;8.39;100.00;96341.47;5036991;28;20208;-67
2023/12/30 07:13:25;;;;;;;4.37;1.70;;;;;;;8.46;100.00;96339.84;5036926;28;20221;-67
2023/12/30 07:15:53;;;;;;;3.30;1.87;;;;;;;8.49;100.00;96346.41;5037540;28;20216;-68
2023/12/30 07:18:19;;;;;;;3.23;1.40;;;;;;;8.34;100.00;96351.63;5036681;28;20603;-67
2023/12/30 07:20:46;;;;;;;1.77;1.00;;;;;;;8.27;100.00;96351.44;5035338;28;20209;-67
2023/12/30 07:23:13;;;;;;;1.37;1.00;;;;;;;8.40;100.00;96353.63;5036143;28;20230;-67
2023/12/30 07:25:40;;;;;;;4.83;1.50;;;;;;;8.45;100.00;96359.22;5036150;28;20689;-67
2023/12/30 07:28:07;;;;;;;0.80;0.70;;;;;;;8.39;100.00;96354.59;5037372;28;20231;-67
2023/12/30 07:30:34;;;;;;;2.20;1.33;;;;;;;8.43;100.00;96362.00;5035773;28;20209;-67
2023/12/30 07:33:02;;;;;;;2.17;1.10;;;;;;;8.55;100.00;96361.53;5037504;28;20225;-67
2023/12/30 07:35:29;;;;;;;1.23;0.87;;;;;;;8.28;100.00;96375.91;5038902;28;20235;-67
2023/12/30 07:37:56;;;;;;;1.90;0.73;;;;;;;8.49;100.00;96369.25;5036559;28;20205;-67
2023/12/30 07:40:23;;;;;;;1.87;0.80;;;;;;;8.52;100.00;96377.59;5036196;28;20225;-67
2023/12/30 07:42:49;;;;;;;1.50;0.83;;;;;;;8.47;100.00;96388.78;5037341;28;20216;-67
2023/12/30 07:45:16;;;;;;;3.63;1.30;;;;;;;8.51;100.00;96375.13;5037228;28;20225;-67
2023/12/30 07:47:42;;;;;;;2.10;1.27;;;;;;;8.54;100.00;96390.56;5036115;28;20324;-67
2023/12/30 07:50:11;;;;;;;50.57;16.60;;;;;;;8.74;100.00;96392.75;5037139;28;20733;-67
2023/12/30 07:52:38;;;;;;;21.73;7.63;;;;;;;8.69;100.00;96387.19;5035680;28;20262;-68
2023/12/30 07:55:05;;;;;;;14.27;5.63;;;;;;;9.05;100.00;96391.16;5034527;28;21105;-69
2023/12/30 07:57:31;;;;;;;35.13;11.77;;;;;;;9.05;100.00;96395.56;5036243;28;20228;-68
2023/12/30 07:59:58;;;;;;;20.37;7.10;;;;;;;9.04;100.00;96397.38;5036032;28;20201;-69
2023/12/30 08:02:24;;;;;;;13.97;6.00;;;;;;;8.93;100.00;96396.88;5035613;28;20223;-69
2023/12/30 08:04:51;;;;;;;15.60;6.57;;;;;;;8.96;100.00;96405.28;5035851;28;20718;-68
2023/12/30 08:07:18;;;;;;;22.00;8.63;;;;;;;9.11;100.00;96396.56;5036044;28;20564;-69
2023/12/30 08:09:45;;;;;;;9.57;6.90;;;;;;;8.82;100.00;96392.78;5034471;28;20201;-69
2023/12/30 08:12:11;;;;;;;8.07;5.43;;;;;;;8.73;100.00;96391.13;5034620;28;20208;-68
2023/12/30 08:14:38;;;;;;;7.77;4.93;;;;;;;8.82;100.00;96398.03;5034678;28;20733;-69
2023/12/30 08:17:04;;;;;;;6.80;3.50;;;;;;;8.92;100.00;96398.66;5034238;28;20197;-68
2023/12/30 08:19:31;;;;;;;3.47;2.27;;;;;;;8.93;100.00;96395.06;5034265;28;20214;-68
2023/12/30 08:21:57;;;;;;;14.13;5.67;;;;;;;8.93;100.00;96392.44;5033632;28;20212;-68
2023/12/30 08:24:28;;;;;;;6.97;3.00;;;;;;;9.15;100.00;96392.63;5035879;28;20228;-68
2023/12/30 08:26:54;;;;;;;7.63;3.13;;;;;;;9.04;100.00;96392.13;5034681;28;20608;-68
2023/12/30 08:29:21;;;;;;;8.43;3.30;;;;;;;9.19;100.00;96401.00;5036519;28;20203;-68
2023/12/30 08:31:47;;;;;;;3.73;2.10;;;;;;;9.21;100.00;96404.28;5033418;28;20201;-68
2023/12/30 08:34:14;;;;;;;2.67;1.50;;;;;;;9.36;100.00;96407.91;5035198;28;20228;-68
2023/12/30 08:36:42;;;;;;;3.60;2.10;;;;;;;9.29;100.00;96404.28;5032603;28;20216;-68
2023/12/30 08:39:08;;;;;;;1.77;1.30;;;;;;;9.28;100.00;96408.72;5034148;28;20208;-68
2023/12/30 08:41:36;;;;;;;4.70;2.07;;;;;;;9.68;100.00;96399.97;5034040;28;20216;-68
2023/12/30 08:44:03;;;;;;;3.73;1.70;;;;;;;9.78;100.00;96402.22;5033046;28;20228;-68
2023/12/30 08:46:29;;;;;;;2.20;1.47;;;;;;;9.68;100.00;96406.84;5034154;28;20197;-68
2023/12/30 08:48:56;;;;;;;3.33;1.80;;;;;;;9.82;100.00;96403.53;5034894;28;20213;-68
2023/12/30 08:51:23;;;;;;;2.43;1.53;;;;;;;9.74;100.00;96400.94;5036155;28;20270;-68
2023/12/30 08:53:50;;;;;;;3.97;1.63;;;;;;;9.84;100.00;96398.94;5034196;28;20225;-68
2023/12/30 08:56:16;;;;;;;7.93;3.90;;;;;;;9.81;100.00;96401.06;5035508;28;20575;-68
2023/12/30 08:58:44;;;;;;;4.83;1.87;;;;;;;10.05;100.00;96398.41;5035725;28;20212;-68
2023/12/30 09:01:11;;;;;;;4.60;1.80;;;;;;;9.63;100.00;96412.81;5034323;28;20212;-68
2023/12/30 09:03:38;;;;;;;3.50;1.77;;;;;;;9.82;100.00;96408.78;5032588;28;20320;-68
2023/12/30 09:06:04;;;;;;;2.57;1.57;;;;;;;10.03;100.00;96416.19;5035733;28;20753;-68
2023/12/30 09:08:31;;;;;;;3.17;1.30;;;;;;;10.12;100.00;96420.44;5035225;28;20206;-68
2023/12/30 09:10:58;;;;;;;3.57;2.03;;;;;;;10.13;100.00;96417.66;5034416;28;20198;-68
2023/12/30 09:13:25;;;;;;;4.03;1.67;;;;;;;9.99;100.00;96428.03;5034162;28;20249;-68
2023/12/30 09:15:52;;;;;;;4.30;1.73;;;;;;;10.16;100.00;96417.31;5033773;28;20197;-67
2023/12/30 09:18:19;;;;;;;5.43;1.77;;;;;;;9.93;100.00;96423.44;5035801;28;20205;-67
2023/12/30 09:20:45;;;;;;;2.53;1.47;;;;;;;9.82;100.00;96419.31;5037484;28;20205;-68
2023/12/30 09:23:12;;;;;;;2.87;1.60;;;;;;;10.01;100.00;96421.63;5038196;28;20229;-67
2023/12/30 09:25:38;;;;;;;3.40;1.30;;;;;;;9.89;100.00;96427.38;5039275;28;20221;-67
2023/12/30 09:28:05;;;;;;;2.87;1.70;;;;;;;10.08;100.00;96417.34;5039439;28;20205;-68
2023/12/30 09:30:32;;;;;;;3.30;1.60;;;;;;;10.09;100.00;96420.78;5038860;28;20209;-67
2023/12/30 09:32:59;;;;;;;2.53;1.87;;;;;;;10.12;100.00;96417.78;5038873;28;20252;-68
2023/12/30 09:35:26;;;;;;;3.13;1.53;;;;;;;10.08;100.00;96424.38;5038696;28;20200;-67
2023/12/30 09:40:44;;;;;;;2.17;1.33;;;;;;;10.04;100.00;96413.41;5028765;28;20209;-68
2023/12/30 09:43:14;;;;;;;3.43;1.57;;;;;;;10.43;100.00;96419.50;5037694;28;20235;-68
2023/12/30 09:45:41;;;;;;;3.37;1.70;;;;;;;10.37;100.00;96412.25;5038644;28;20225;-68
2023/12/30 09:48:11;;;;;;;4.40;1.63;;;;;;;10.59;100.00;96414.13;5038568;28;20201;-68
2023/12/30 09:50:37;;;;;;;3.63;1.77;;;;;;;10.37;100.00;96409.63;5039101;28;20209;-68
2023/12/30 09:53:04;;;;;;;3.23;2.00;;;;;;;10.52;100.00;96406.09;5037714;28;20233;-68
2023/12/30 09:55:30;;;;;;;2.67;1.67;;;;;;;10.29;100.00;96404.41;5039115;28;20197;-68
2023/12/30 09:57:57;;;;;;;4.17;1.67;;;;;;;10.39;100.00;96411.09;5038155;28;20201;-68
2023/12/30 10:00:28;;;;;;;3.67;1.70;;;;;;;10.54;100.00;96411.22;5038269;28;20201;-68
2023/12/30 10:02:55;;;;;;;3.53;1.63;;;;;;;10.49;100.00;96413.53;5038686;28;20245;-68
2023/12/30 10:05:23;;;;;;;3.17;2.00;;;;;;;10.64;100.00;96393.34;5038168;28;20225;-68
2023/12/30 10:07:50;;;;;;;1.83;1.40;;;;;;;10.43;100.00;96414.22;5038489;28;20204;-68
2023/12/30 10:10:35;;;;;;;2.17;1.60;;;;;;;10.89;100.00;96400.13;5038299;28;20220;-68
2023/12/30 10:13:01;;;;;;;2.23;1.73;;;;;;;10.68;100.00;96397.28;5037952;28;20225;-68
2023/12/30 10:15:28;;;;;;;5.07;2.03;;;;;;;10.73;100.00;96402.84;5038641;28;20198;-68
2023/12/30 10:17:54;;;;;;;7.50;2.40;;;;;;;10.85;100.00;96404.13;5038622;28;20205;-68
2023/12/30 10:20:23;;;;;;;2.83;1.40;;;;;;;10.72;100.00;96398.59;5037142;28;20205;-68
2023/12/30 10:22:49;;;;;;;3.83;1.50;;;;;;;10.82;100.00;96402.66;5037717;28;20271;-68
2023/12/30 10:25:16;;;;;;;2.87;1.40;;;;;;;10.89;100.00;96395.66;5037691;28;20229;-68
2023/12/30 10:27:42;;;;;;;5.93;2.67;;;;;;;11.11;100.00;96400.97;5037808;28;20213;-68
2023/12/30 10:30:10;;;;;;;4.67;1.73;;;;;;;11.12;100.00;96396.50;5037773;28;20208;-68
2023/12/30 10:32:36;;;;;;;3.90;1.63;;;;;;;11.18;100.00;96385.25;5037482;28;20208;-68
2023/12/30 10:35:03;;;;;;;3.37;2.00;;;;;;;11.17;100.00;96394.97;5037831;28;20197;-68
2023/12/30 10:37:31;;;;;;;4.17;1.70;;;;;;;11.27;100.00;96395.53;5037376;28;20243;-68
2023/12/30 10:39:59;;;;;;;4.40;1.53;;;;;;;11.33;100.00;96391.38;5038100;28;20250;-68
2023/12/30 10:42:26;;;;;;;2.97;1.80;;;;;;;11.14;100.00;96389.25;5036523;28;20201;-68
2023/12/30 10:44:52;;;;;;;2.83;1.60;;;;;;;11.29;100.00;96387.44;5038191;28;20248;-67
2023/12/30 10:47:22;;;;;;;1.70;1.17;;;;;;;11.38;100.00;96383.75;5037418;28;20292;-68
2023/12/30 10:49:52;;;;;;;2.40;1.67;;;;;;;11.86;100.00;96387.63;5036976;28;20217;-68
2023/12/30 10:52:23;;;;;;;2.20;1.27;;;;;;;11.87;100.00;96381.31;5036286;28;20298;-68
2023/12/30 10:55:00;;;;;;;4.97;1.70;;;;;;;12.18;100.00;96388.06;5036670;28;20224;-69
2023/12/30 10:57:31;;;;;;;1.70;0.77;;;;;;;12.10;100.00;96387.31;5037160;28;20233;-69
2023/12/30 11:00:00;;;;;;;6.57;1.00;;;;;;;12.05;100.00;96383.59;5038335;28;20213;-69
2023/12/30 11:02:26;;;;;;;2.17;1.17;;;;;;;12.13;100.00;96383.50;5036015;28;20267;-68
2023/12/30 11:04:54;;;;;;;4.67;1.00;;;;;;;12.15;100.00;96377.03;5036800;28;20233;-69
2023/12/30 11:07:22;;;;;;;2.30;1.30;;;;;;;12.32;100.00;96371.38;5037773;28;20255;-69
2023/12/30 11:09:48;;;;;;;1.23;1.07;;;;;;;12.25;100.00;96367.81;5037643;28;20205;-69
2023/12/30 11:12:16;;;;;;;1.87;1.20;;;;;;;12.38;100.00;96365.34;5036204;28;20232;-69
2023/12/30 11:14:42;;;;;;;2.03;1.20;;;;;;;12.17;100.00;96365.28;5036568;28;20228;-69
2023/12/30 11:17:09;;;;;;;1.57;1.00;;;;;;;12.33;100.00;96364.25;5036709;28;20209;-69
2023/12/30 11:19:37;;;;;;;1.67;1.10;;;;;;;12.61;100.00;96358.09;5035537;28;20201;-70
2023/12/30 11:22:06;;;;;;;5.30;1.27;;;;;;;12.56;100.00;96360.47;5036515;28;20205;-70
2023/12/30 11:24:34;;;;;;;2.33;1.17;;;;;;;12.27;100.00;96371.09;5036823;28;20305;-71
2023/12/30 11:27:00;;;;;;;3.90;2.20;;;;;;;12.29;100.00;96366.44;5037094;28;20208;-70
2023/12/30 11:29:28;;;;;;;1.23;0.90;;;;;;;12.44;100.00;96361.97;5036365;28;20206;-70
2023/12/30 11:31:56;;;;;;;2.70;0.90;;;;;;;12.40;100.00;96363.34;5035831;28;20204;-70
2023/12/30 11:34:24;;;;;;;3.57;0.80;;;;;;;11.87;100.00;96356.75;5036390;28;20236;-71